createdAt,value
2023-02-22T00:01:02.968Z,10.47
2023-02-22T00:03:33.267Z,10.07
2023-02-22T00:06:04.817Z,11.17
2023-02-22T00:08:35.594Z,9.50
2023-02-22T00:11:08.459Z,6.97
2023-02-22T00:13:37.364Z,12.10
2023-02-22T00:16:06.840Z,8.73
2023-02-22T00:18:35.049Z,6.57
2023-02-22T00:21:03.587Z,9.07
2023-02-22T00:23:32.756Z,7.50
2023-02-22T00:26:01.890Z,8.93
2023-02-22T00:28:31.288Z,6.80
2023-02-22T00:31:00.202Z,7.07
2023-02-22T00:33:28.430Z,10.93
2023-02-22T00:35:56.489Z,9.93
2023-02-22T00:38:24.853Z,9.03
2023-02-22T00:40:53.157Z,8.80
2023-02-22T00:43:21.307Z,8.07
2023-02-22T00:45:50.709Z,9.30
2023-02-22T00:48:19.576Z,10.57
2023-02-22T00:50:49.041Z,9.80
2023-02-22T00:53:17.571Z,8.83
2023-02-22T00:55:45.584Z,9.87
2023-02-22T00:58:13.754Z,7.97
2023-02-22T01:00:44.130Z,9.37
2023-02-22T01:03:16.024Z,10.43
2023-02-22T01:05:44.727Z,13.17
2023-02-22T01:08:16.548Z,7.97
2023-02-22T01:10:45.001Z,6.63
2023-02-22T01:13:14.590Z,14.60
2023-02-22T01:15:45.246Z,6.83
2023-02-22T01:18:17.189Z,7.90
2023-02-22T01:20:47.837Z,7.30
2023-02-22T01:23:18.470Z,7.27
2023-02-22T01:25:46.694Z,7.73
2023-02-22T01:28:15.991Z,7.13
2023-02-22T01:30:44.178Z,9.43
2023-02-22T01:33:15.531Z,9.53
2023-02-22T01:35:46.206Z,5.33
2023-02-22T01:38:15.192Z,7.20
2023-02-22T01:40:49.655Z,6.60
2023-02-22T01:43:22.497Z,6.70
2023-02-22T01:45:59.039Z,10.73
2023-02-22T01:48:36.212Z,8.60
2023-02-22T01:51:10.840Z,9.67
2023-02-22T01:53:48.472Z,6.80
2023-02-22T01:56:18.764Z,8.47
2023-02-22T01:58:51.748Z,6.47
2023-02-22T02:01:22.993Z,5.47
2023-02-22T02:03:58.491Z,9.17
2023-02-22T02:06:28.049Z,7.33
2023-02-22T02:09:06.709Z,5.83
2023-02-22T02:11:35.232Z,6.90
2023-02-22T02:14:03.210Z,9.40
2023-02-22T02:16:39.896Z,8.77
2023-02-22T02:19:20.332Z,5.17
2023-02-22T02:22:25.543Z,4.97
2023-02-22T02:25:39.314Z,6.57
2023-02-22T02:29:13.234Z,7.97
2023-02-22T02:32:25.161Z,6.23
2023-02-22T02:35:04.319Z,6.13
2023-02-22T02:37:40.869Z,7.90
2023-02-22T02:40:21.561Z,8.43
2023-02-22T02:43:02.023Z,7.87
2023-02-22T02:45:40.936Z,8.70
2023-02-22T02:48:14.893Z,6.87
2023-02-22T02:50:51.178Z,5.07
2023-02-22T02:53:23.333Z,9.20
2023-02-22T02:55:51.405Z,7.67
2023-02-22T02:58:23.309Z,9.77
2023-02-22T03:00:56.474Z,7.03
2023-02-22T03:04:00.296Z,8.67
2023-02-22T03:07:16.527Z,7.87
2023-02-22T03:10:00.272Z,6.00
2023-02-22T03:12:39.905Z,5.87
2023-02-22T03:15:27.043Z,8.07
2023-02-22T03:18:03.411Z,6.37
2023-02-22T03:20:44.004Z,7.87
2023-02-22T03:23:24.743Z,11.40
2023-02-22T03:25:59.073Z,5.90
2023-02-22T03:28:29.585Z,5.77
2023-02-22T03:31:02.999Z,9.13
2023-02-22T03:33:38.285Z,7.00
2023-02-22T03:36:14.770Z,9.10
2023-02-22T03:38:45.710Z,7.53
2023-02-22T03:41:20.593Z,8.90
2023-02-22T03:43:51.896Z,6.37
2023-02-22T03:46:20.415Z,6.07
2023-02-22T03:48:55.414Z,7.30
2023-02-22T03:51:25.785Z,6.90
2023-02-22T03:53:59.218Z,6.90
2023-02-22T03:56:36.587Z,7.63
2023-02-22T03:59:07.308Z,6.53
2023-02-22T04:01:36.386Z,8.93
2023-02-22T04:04:29.479Z,6.90
2023-02-22T04:07:02.049Z,7.30
2023-02-22T04:09:30.957Z,10.50
2023-02-22T04:11:59.028Z,7.50
2023-02-22T04:14:29.487Z,9.87
2023-02-22T04:16:58.982Z,6.70
2023-02-22T04:19:27.972Z,6.43
2023-02-22T04:21:56.424Z,7.03
2023-02-22T04:24:30.425Z,8.17
2023-02-22T04:26:59.018Z,10.90
2023-02-22T04:29:27.340Z,6.87
2023-02-22T04:31:55.963Z,7.73
2023-02-22T04:34:24.191Z,7.70
2023-02-22T04:36:52.420Z,6.93
2023-02-22T04:39:21.196Z,6.33
2023-02-22T04:41:50.817Z,6.73
2023-02-22T04:44:19.015Z,7.53
2023-02-22T04:46:47.485Z,8.83
2023-02-22T04:49:17.100Z,5.80
2023-02-22T04:51:46.530Z,6.93
2023-02-22T04:54:17.192Z,9.80
2023-02-22T04:56:48.065Z,6.60
2023-02-22T04:59:17.607Z,7.63
2023-02-22T05:01:48.121Z,7.80
2023-02-22T05:04:16.299Z,8.43
2023-02-22T05:06:44.344Z,8.77
2023-02-22T05:09:12.364Z,8.17
2023-02-22T05:11:40.393Z,10.23
2023-02-22T05:14:08.502Z,8.43
2023-02-22T05:16:38.583Z,5.67
2023-02-22T05:19:06.664Z,6.33
2023-02-22T05:21:34.695Z,9.47
2023-02-22T05:24:02.856Z,8.20
2023-02-22T05:26:30.902Z,8.37
2023-02-22T05:28:58.974Z,6.73
2023-02-22T05:31:27.036Z,7.40
2023-02-22T05:33:56.463Z,9.87
2023-02-22T05:36:24.835Z,6.80
2023-02-22T05:38:52.876Z,7.60
2023-02-22T05:41:21.048Z,7.27
2023-02-22T05:43:49.266Z,6.60
2023-02-22T05:46:17.372Z,7.13
2023-02-22T05:48:45.521Z,6.50
2023-02-22T05:51:15.122Z,8.47
2023-02-22T05:53:43.548Z,7.53
2023-02-22T05:56:11.682Z,8.27
2023-02-22T05:58:39.749Z,9.77
2023-02-22T06:01:07.763Z,5.90
2023-02-22T06:03:35.835Z,10.97
2023-02-22T06:06:05.407Z,8.83
2023-02-22T06:08:34.810Z,9.43
2023-02-22T06:11:02.855Z,9.03
2023-02-22T06:13:30.916Z,8.97
2023-02-22T06:15:59.080Z,9.73
2023-02-22T06:18:30.361Z,7.37
2023-02-22T06:20:58.699Z,8.90
2023-02-22T06:23:28.180Z,11.33
2023-02-22T06:25:57.761Z,8.50
2023-02-22T06:28:26.367Z,8.30
2023-02-22T06:30:54.435Z,12.53
2023-02-22T06:33:22.642Z,10.63
2023-02-22T06:35:50.696Z,9.30
2023-02-22T06:38:25.737Z,8.60
2023-02-22T06:40:55.236Z,9.67
2023-02-22T06:43:25.761Z,9.97
2023-02-22T06:45:54.548Z,7.70
2023-02-22T06:48:22.626Z,9.00
2023-02-22T06:50:51.229Z,11.60
2023-02-22T06:53:19.523Z,10.90
2023-02-22T06:55:47.625Z,9.60
2023-02-22T06:58:16.001Z,11.33
2023-02-22T07:00:45.396Z,6.60
2023-02-22T07:03:14.272Z,7.47
2023-02-22T07:05:42.429Z,8.03
2023-02-22T07:08:11.425Z,9.00
2023-02-22T07:10:40.860Z,8.63
2023-02-22T07:13:09.747Z,8.47
2023-02-22T07:15:38.207Z,11.30
2023-02-22T07:18:07.953Z,11.23
2023-02-22T07:20:36.273Z,8.10
2023-02-22T07:23:07.561Z,10.23
2023-02-22T07:25:36.003Z,12.17
2023-02-22T07:28:04.053Z,8.60
2023-02-22T07:30:34.502Z,7.03
2023-02-22T07:33:06.084Z,9.27
2023-02-22T07:35:40.144Z,8.87
2023-02-22T07:38:12.501Z,9.07
2023-02-22T07:40:41.120Z,11.03
2023-02-22T07:47:44.521Z,7.67
2023-02-22T07:50:14.359Z,10.30
2023-02-22T07:52:47.622Z,8.87
2023-02-22T07:55:17.802Z,12.50
2023-02-22T07:57:47.644Z,8.03
2023-02-22T08:00:26.182Z,8.43
2023-02-22T08:05:49.732Z,11.50
2023-02-22T08:08:20.008Z,9.50
2023-02-22T08:10:49.297Z,7.00
2023-02-22T08:13:18.078Z,8.03
2023-02-22T08:15:47.386Z,8.17
2023-02-22T08:18:20.215Z,11.57
2023-02-22T08:20:50.289Z,6.43
2023-02-22T08:23:22.458Z,8.53
2023-02-22T08:25:50.624Z,10.23
2023-02-22T08:28:23.276Z,9.10
2023-02-22T08:30:52.105Z,10.70
2023-02-22T08:33:21.374Z,7.90
2023-02-22T08:35:51.900Z,9.73
2023-02-22T08:38:27.441Z,10.70
2023-02-22T08:40:55.998Z,8.27
2023-02-22T08:43:24.955Z,8.70
2023-02-22T08:45:55.528Z,15.00
2023-02-22T08:48:28.422Z,8.43
2023-02-22T08:50:56.850Z,6.53
2023-02-22T08:53:26.496Z,6.30
2023-02-22T08:58:51.189Z,9.77
2023-02-22T09:01:31.446Z,7.00
2023-02-22T09:05:07.592Z,6.73
2023-02-22T09:07:38.899Z,7.87
2023-02-22T09:10:09.725Z,8.80
2023-02-22T09:12:38.386Z,6.37
2023-02-22T09:15:07.755Z,7.47
2023-02-22T09:17:37.641Z,5.83
2023-02-22T09:20:29.410Z,6.33
2023-02-22T09:23:39.234Z,7.80
2023-02-22T09:26:23.770Z,10.40
2023-02-22T09:28:54.115Z,7.10
2023-02-22T09:31:41.870Z,7.13
2023-02-22T09:34:45.995Z,5.83
2023-02-22T09:37:49.732Z,7.83
2023-02-22T09:40:32.397Z,6.43
2023-02-22T09:43:25.345Z,5.43
2023-02-22T09:46:13.960Z,7.43
2023-02-22T09:48:58.783Z,7.17
2023-02-22T09:51:35.685Z,8.93
2023-02-22T09:54:11.030Z,7.30
2023-02-22T09:56:39.626Z,6.80
2023-02-22T09:59:12.604Z,6.10
2023-02-22T10:01:45.914Z,5.50
2023-02-22T10:04:22.038Z,6.93
2023-02-22T10:07:06.022Z,6.03
2023-02-22T10:09:42.521Z,8.07
2023-02-22T10:12:16.151Z,9.37
2023-02-22T10:15:15.980Z,5.57
2023-02-22T10:17:51.212Z,5.13
2023-02-22T10:20:32.394Z,5.27
2023-02-22T10:23:12.775Z,9.03
2023-02-22T10:25:45.069Z,6.43
2023-02-22T10:28:19.074Z,7.33
2023-02-22T10:30:54.930Z,8.30
2023-02-22T10:33:27.396Z,5.80
2023-02-22T10:35:57.103Z,5.87
2023-02-22T10:38:28.691Z,7.37
2023-02-22T10:41:02.968Z,8.87
2023-02-22T10:43:31.723Z,9.27
2023-02-22T10:46:04.457Z,7.33
2023-02-22T10:48:37.626Z,9.73
2023-02-22T10:51:09.466Z,7.77
2023-02-22T10:53:39.331Z,7.80
2023-02-22T10:56:17.341Z,11.03
2023-02-22T10:58:50.508Z,10.97
2023-02-22T11:01:28.504Z,7.70
2023-02-22T11:04:05.081Z,12.50
2023-02-22T11:06:36.901Z,7.47
2023-02-22T11:09:16.047Z,7.23
2023-02-22T11:11:48.130Z,7.73
2023-02-22T11:14:28.780Z,7.00
2023-02-22T11:16:59.493Z,7.93
2023-02-22T11:19:30.072Z,7.73
2023-02-22T11:22:14.786Z,6.27
2023-02-22T11:24:51.536Z,6.70
2023-02-22T11:27:35.290Z,6.90
2023-02-22T11:30:22.614Z,7.60
2023-02-22T11:32:58.586Z,10.80
2023-02-22T11:35:40.900Z,8.60
2023-02-22T11:38:18.440Z,13.07
2023-02-22T11:40:47.060Z,9.27
2023-02-22T11:43:20.246Z,9.73
2023-02-22T11:46:02.393Z,8.70
2023-02-22T11:48:36.550Z,11.77
2023-02-22T11:51:24.334Z,9.07
2023-02-22T11:54:25.475Z,11.10
2023-02-22T11:56:58.496Z,12.30
2023-02-22T11:59:37.521Z,10.90
2023-02-22T12:02:30.373Z,11.80
2023-02-22T12:05:20.885Z,10.20
2023-02-22T12:08:10.702Z,10.87
2023-02-22T12:11:02.488Z,8.63
2023-02-22T12:13:55.131Z,11.47
2023-02-22T12:16:35.455Z,12.93
2023-02-22T12:19:22.017Z,11.57
2023-02-22T12:21:57.140Z,12.90
2023-02-22T12:24:33.310Z,11.87
2023-02-22T12:27:06.725Z,9.77
2023-02-22T12:29:42.206Z,11.60
2023-02-22T12:32:17.459Z,12.90
2023-02-22T12:34:51.218Z,9.40
2023-02-22T12:37:25.284Z,10.80
2023-02-22T12:40:08.343Z,15.53
2023-02-22T12:42:51.325Z,10.90
2023-02-22T12:45:40.969Z,9.37
2023-02-22T12:48:32.277Z,8.60
2023-02-22T12:51:09.654Z,11.27
2023-02-22T12:53:44.810Z,10.40
2023-02-22T12:56:24.817Z,12.67
2023-02-22T12:59:02.793Z,9.30
2023-02-22T13:01:38.554Z,12.23
2023-02-22T13:04:20.170Z,11.63
2023-02-22T13:07:02.988Z,11.13
2023-02-22T13:10:12.321Z,9.20
2023-02-22T13:12:53.882Z,9.93
2023-02-22T13:15:29.589Z,10.33
2023-02-22T13:18:11.253Z,12.03
2023-02-22T13:20:47.946Z,9.17
2023-02-22T13:23:31.226Z,12.43
2023-02-22T13:26:11.132Z,12.03
2023-02-22T13:28:46.451Z,11.47
2023-02-22T13:31:36.799Z,10.23
2023-02-22T13:34:37.012Z,11.90
2023-02-22T13:37:50.812Z,11.53
2023-02-22T13:40:57.304Z,10.47
2023-02-22T13:43:47.797Z,10.23
2023-02-22T13:46:56.950Z,9.63
2023-02-22T13:49:48.019Z,9.33
2023-02-22T13:52:21.737Z,10.00
2023-02-22T13:54:54.435Z,12.50
2023-02-22T13:57:26.130Z,11.00
2023-02-22T14:00:25.974Z,13.47
2023-02-22T14:03:06.752Z,11.53
2023-02-22T14:05:50.873Z,10.33
2023-02-22T14:08:45.737Z,10.60
2023-02-22T14:11:47.220Z,9.73
2023-02-22T14:14:20.343Z,10.63
2023-02-22T14:17:24.855Z,11.47
2023-02-22T14:20:29.986Z,14.20
2023-02-22T14:23:19.872Z,9.13
2023-02-22T14:25:50.081Z,14.30
2023-02-22T14:28:43.841Z,12.50
2023-02-22T14:31:29.528Z,9.60
2023-02-22T14:34:10.541Z,11.00
2023-02-22T14:36:53.338Z,10.10
2023-02-22T14:39:32.001Z,11.80
2023-02-22T14:42:07.584Z,9.60
2023-02-22T14:44:42.537Z,14.27
2023-02-22T14:47:20.898Z,14.43
2023-02-22T14:49:54.770Z,13.03
2023-02-22T14:52:27.744Z,9.83
2023-02-22T14:55:18.454Z,11.37
2023-02-22T14:58:00.150Z,11.27
2023-02-22T15:00:37.614Z,9.73
2023-02-22T15:03:05.837Z,10.27
2023-02-22T15:05:39.206Z,9.67
2023-02-22T15:08:09.761Z,10.20
2023-02-22T15:10:46.458Z,10.73
2023-02-22T15:13:23.747Z,10.07
2023-02-22T15:16:00.590Z,12.90
2023-02-22T15:18:34.912Z,11.33
2023-02-22T15:21:13.102Z,10.07
2023-02-22T15:23:44.964Z,11.10
2023-02-22T15:26:22.939Z,9.30
2023-02-22T15:28:56.413Z,11.57
2023-02-22T15:31:30.941Z,11.53
2023-02-22T15:34:22.168Z,9.57
2023-02-22T15:36:54.454Z,10.87
2023-02-22T15:39:27.026Z,13.87
2023-02-22T15:42:07.807Z,9.47
2023-02-22T15:44:40.403Z,11.30
2023-02-22T15:47:13.059Z,12.17
2023-02-22T15:49:41.057Z,8.70
2023-02-22T15:52:19.876Z,11.90
2023-02-22T15:54:51.372Z,14.70
2023-02-22T15:57:27.353Z,14.37
2023-02-22T15:59:58.537Z,9.33
2023-02-22T16:02:44.424Z,8.87
2023-02-22T16:05:18.307Z,10.80
2023-02-22T16:07:50.352Z,10.30
2023-02-22T16:10:27.256Z,10.63
2023-02-22T16:13:10.024Z,9.93
2023-02-22T16:15:43.716Z,11.53
2023-02-22T16:18:24.522Z,17.00
2023-02-22T16:21:00.976Z,13.30
2023-02-22T16:23:30.493Z,11.03
2023-02-22T16:26:21.979Z,13.67
2023-02-22T16:28:52.876Z,12.63
2023-02-22T16:31:25.132Z,11.80
2023-02-22T16:33:54.337Z,10.37
2023-02-22T16:36:37.819Z,14.60
2023-02-22T16:39:08.183Z,11.87
2023-02-22T16:41:36.233Z,11.20
2023-02-22T16:44:07.594Z,13.97
2023-02-22T16:46:37.842Z,14.17
2023-02-22T16:49:06.477Z,10.50
2023-02-22T16:51:41.755Z,14.70
2023-02-22T16:54:13.696Z,16.33
2023-02-22T16:56:42.138Z,14.47
2023-02-22T16:59:14.928Z,11.47
2023-02-22T17:01:44.909Z,9.90
2023-02-22T17:04:19.881Z,12.57
2023-02-22T17:06:48.724Z,16.10
2023-02-22T17:09:17.102Z,12.77
2023-02-22T17:11:45.438Z,14.27
2023-02-22T17:14:19.352Z,12.73
2023-02-22T17:16:48.885Z,14.40
2023-02-22T17:19:19.490Z,13.70
2023-02-22T17:21:47.841Z,15.10
2023-02-22T17:24:18.415Z,12.30
2023-02-22T17:26:46.511Z,12.03
2023-02-22T17:29:15.275Z,11.57
2023-02-22T17:31:43.617Z,16.17
2023-02-22T17:34:13.164Z,11.93
2023-02-22T17:36:42.001Z,14.43
2023-02-22T17:39:10.946Z,12.23
2023-02-22T17:41:40.701Z,13.07
2023-02-22T17:44:09.503Z,11.47
2023-02-22T17:46:37.692Z,14.40
2023-02-22T17:49:05.790Z,14.27
2023-02-22T17:51:35.416Z,13.13
2023-02-22T17:54:03.411Z,13.90
2023-02-22T17:56:31.473Z,13.43
2023-02-22T17:58:59.694Z,14.47
2023-02-22T18:01:31.042Z,15.53
2023-02-22T18:04:02.820Z,12.07
2023-02-22T18:06:32.962Z,15.40
2023-02-22T18:09:10.056Z,15.77
2023-02-22T18:11:40.423Z,15.23
2023-02-22T18:14:10.735Z,23.30
2023-02-22T18:16:39.374Z,19.37
2023-02-22T18:19:07.475Z,14.73
2023-02-22T18:21:35.531Z,15.23
2023-02-22T18:24:05.580Z,17.10
2023-02-22T18:26:34.406Z,18.37
2023-02-22T18:29:02.580Z,11.60
2023-02-22T18:31:30.650Z,13.50
2023-02-22T18:33:58.925Z,11.07
2023-02-22T18:36:26.976Z,10.60
2023-02-22T18:38:56.285Z,11.73
2023-02-22T18:41:26.241Z,12.90
2023-02-22T18:43:58.439Z,12.40
2023-02-22T18:46:27.680Z,15.37
2023-02-22T18:48:57.639Z,10.10
2023-02-22T18:51:27.134Z,11.83
2023-02-22T18:54:00.251Z,10.53
2023-02-22T18:56:31.360Z,10.73
2023-02-22T18:59:02.214Z,12.27
2023-02-22T19:01:35.616Z,11.63
2023-02-22T19:04:03.672Z,10.67
2023-02-22T19:06:34.862Z,9.03
2023-02-22T19:09:04.626Z,14.10
2023-02-22T19:11:33.997Z,8.93
2023-02-22T19:14:03.981Z,11.83
2023-02-22T19:16:32.564Z,9.57
2023-02-22T19:19:01.905Z,12.13
2023-02-22T19:21:33.477Z,14.67
2023-02-22T19:24:01.661Z,9.90
2023-02-22T19:26:30.705Z,10.37
2023-02-22T19:29:05.286Z,10.33
2023-02-22T19:31:34.481Z,11.20
2023-02-22T19:34:05.094Z,11.37
2023-02-22T19:36:34.095Z,9.60
2023-02-22T19:39:02.462Z,10.03
2023-02-22T19:41:30.944Z,10.17
2023-02-22T19:44:02.631Z,10.77
2023-02-22T19:46:31.982Z,11.27
2023-02-22T19:49:00.218Z,8.63
2023-02-22T19:51:30.965Z,10.20
2023-02-22T19:54:02.359Z,11.57
2023-02-22T19:56:32.151Z,13.60
2023-02-22T19:59:09.388Z,13.50
2023-02-22T20:01:38.487Z,11.90
2023-02-22T20:04:11.947Z,8.60
2023-02-22T20:06:42.210Z,13.97
2023-02-22T20:09:13.462Z,10.00
2023-02-22T20:11:41.534Z,10.33
2023-02-22T20:14:16.564Z,13.80
2023-02-22T20:16:44.714Z,16.77
2023-02-22T20:19:13.523Z,31.53
2023-02-22T20:21:41.867Z,18.70
2023-02-22T20:24:14.928Z,15.67
2023-02-22T20:26:43.842Z,15.13
2023-02-22T20:29:14.065Z,15.03
2023-02-22T20:31:43.966Z,13.50
2023-02-22T20:34:12.805Z,10.50
2023-02-22T20:36:43.540Z,10.37
2023-02-22T20:39:14.913Z,13.83
2023-02-22T20:41:46.233Z,16.83
2023-02-22T20:44:18.254Z,19.80
2023-02-22T20:46:47.644Z,14.17
2023-02-22T20:49:17.920Z,17.30
2023-02-22T20:51:47.161Z,12.87
2023-02-22T20:54:16.100Z,13.83
2023-02-22T20:56:45.991Z,17.53
2023-02-22T20:59:18.452Z,14.07
2023-02-22T21:01:48.028Z,15.37
2023-02-22T21:04:23.172Z,15.73
2023-02-22T21:06:51.959Z,15.63
2023-02-22T21:09:22.482Z,11.80
2023-02-22T21:11:51.509Z,12.13
2023-02-22T21:14:20.899Z,10.57
2023-02-22T21:16:52.316Z,14.90
2023-02-22T21:19:25.256Z,14.30
2023-02-22T21:22:01.972Z,11.70
2023-02-22T21:24:31.603Z,9.47
2023-02-22T21:27:00.125Z,12.20
2023-02-22T21:29:30.087Z,11.20
2023-02-22T21:31:58.587Z,9.57
2023-02-22T21:34:26.712Z,9.20
2023-02-22T21:36:55.187Z,8.90
2023-02-22T21:39:28.112Z,10.03
2023-02-22T21:42:00.027Z,9.27
2023-02-22T21:44:31.011Z,11.20
2023-02-22T21:46:59.054Z,12.23
2023-02-22T21:49:27.181Z,14.50
2023-02-22T21:51:56.403Z,14.57
2023-02-22T21:54:24.857Z,15.40
2023-02-22T21:56:54.360Z,13.17
2023-02-22T21:59:23.783Z,12.50
2023-02-22T22:01:56.426Z,10.67
2023-02-22T22:04:29.469Z,13.13
2023-02-22T22:07:00.078Z,15.80
2023-02-22T22:09:32.801Z,13.43
2023-02-22T22:12:05.070Z,12.53
2023-02-22T22:14:35.469Z,13.67
2023-02-22T22:17:07.799Z,11.33
2023-02-22T22:19:40.442Z,11.23
2023-02-22T22:22:09.131Z,15.47
2023-02-22T22:24:37.952Z,12.33
2023-02-22T22:27:09.644Z,13.33
2023-02-22T22:29:37.676Z,12.73
2023-02-22T22:32:07.499Z,12.17
2023-02-22T22:34:37.776Z,14.73
2023-02-22T22:37:05.989Z,13.17
2023-02-22T22:39:33.979Z,11.33
2023-02-22T22:42:02.021Z,12.70
2023-02-22T22:44:32.682Z,13.60
2023-02-22T22:47:00.958Z,12.83
2023-02-22T22:49:32.526Z,10.83
2023-02-22T22:52:00.563Z,10.90
2023-02-22T22:54:28.887Z,13.50
2023-02-22T22:56:56.897Z,16.23
2023-02-22T22:59:24.936Z,12.67
2023-02-22T23:01:52.920Z,11.43
2023-02-22T23:04:24.077Z,12.67
2023-02-22T23:06:55.355Z,11.97
2023-02-22T23:09:26.501Z,14.40
2023-02-22T23:12:01.822Z,14.03
2023-02-22T23:14:31.121Z,14.63
2023-02-22T23:17:03.282Z,12.40
2023-02-22T23:19:32.372Z,11.63
2023-02-22T23:22:05.146Z,14.67
2023-02-22T23:24:36.052Z,13.37
2023-02-22T23:27:07.218Z,14.87
2023-02-22T23:29:39.309Z,13.63
2023-02-22T23:32:08.835Z,11.43
2023-02-22T23:34:40.917Z,14.17
2023-02-22T23:37:13.497Z,14.30
2023-02-22T23:39:41.614Z,15.40
2023-02-22T23:42:09.646Z,12.20
2023-02-22T23:44:39.714Z,12.83
2023-02-22T23:47:07.724Z,13.43
2023-02-22T23:49:38.204Z,16.27
2023-02-22T23:52:08.832Z,13.20
2023-02-22T23:54:43.842Z,14.47
2023-02-22T23:57:12.181Z,13.80
2023-02-22T23:59:40.732Z,12.07
